Airfield :
LOGIN :

Register | Disclaimer

   EN    FR    IT 

 










Legend :    VFR   Marginal VFR   IFR   Intensive IFR   Very Intensive IFR
Visi :
Ceiling :
>= 8 km
>= 3000ft
5 to 8 km
1000 to 3000 ft
1500m to 5 km
500 to 1000 ft
800 to 1500m
200 to 500 ft
< 800m
< 200 ft
Symbols :   Thunderstorms  Fog  Heavy snow  Heavy precipitations  Wind > 20 kt
SIGMETs :     Misc.  Thunderstorms  Icing  Turbulence  Mountain Waves  Volcanic Ashes






- Airport Elevation : 36 ft
- IATA code : LTQ


LFAT - Le Touquet

CURRENT METAR :
  • 102330Z AUTO 21015G25KT 190V250 5000 -RA BR BKN010/// OVC014/// ///TCU 10/09 Q1010

EXPIRED METARs :
  • 102300Z AUTO 21014G26KT 170V260 9999 BKN015/// OVC020/// ///TCU 10/08 Q1010
  • 102230Z AUTO 20016G31KT 170V230 9999 OVC018 10/08 Q1009
  • 102200Z AUTO 20014G24KT 150V230 9999 OVC018 10/07 Q1009
  • 102130Z AUTO 19014G25KT 160V220 9999 OVC021 10/07 Q1010
  • 102100Z AUTO 19012KT 150V220 9999 OVC022 10/06 Q1010

Expired Forecast.
ATIS : +33 3 21 06 62 84



MET'MAP, your aeronautical weather chart ! - Copyright ORBIFLY December 2007 - Disclaimer

ORBIFLY MET'MAP TEAM :

Programming & Development : Alexandra Zaïnal
Concept & original design : Baudouin d'Aumeries
Assistance for programming : Marc-Olivier Méhu
Technical & hardware support : Manuel Goepfert

Contact : metmap@orbifly.com




SOURCES & CREDITS :

   NOAA